createdAt,value
2018-12-11T00:00:21.597Z,4.20
2018-12-11T00:01:21.584Z,4.00
2018-12-11T00:02:21.578Z,3.70
2018-12-11T00:03:21.561Z,4.00
2018-12-11T00:04:21.573Z,4.00
2018-12-11T00:05:21.550Z,4.40
2018-12-11T00:06:21.530Z,3.90
2018-12-11T00:07:21.521Z,4.00
2018-12-11T00:08:21.516Z,3.70
2018-12-11T00:09:21.521Z,4.20
2018-12-11T00:10:21.503Z,4.10
2018-12-11T00:11:21.477Z,3.90
2018-12-11T00:12:21.497Z,3.80
2018-12-11T00:13:21.455Z,4.20
2018-12-11T00:14:21.467Z,4.00
2018-12-11T00:15:21.440Z,4.30
2018-12-11T00:16:21.443Z,4.30
2018-12-11T00:17:21.417Z,4.40
2018-12-11T00:18:21.405Z,4.00
2018-12-11T00:19:21.408Z,4.30
2018-12-11T00:20:21.397Z,4.30
2018-12-11T00:21:21.369Z,4.80
2018-12-11T00:22:28.958Z,4.70
2018-12-11T00:23:21.349Z,4.40
2018-12-11T00:24:21.362Z,4.20
2018-12-11T00:25:21.331Z,4.20
2018-12-11T00:26:21.314Z,4.30
2018-12-11T00:27:21.312Z,4.10
2018-12-11T00:28:21.302Z,5.10
2018-12-11T00:29:21.289Z,4.40
2018-12-11T00:30:21.294Z,4.40
2018-12-11T00:31:21.304Z,4.40
2018-12-11T00:32:28.845Z,4.50
2018-12-11T00:33:21.265Z,4.50
2018-12-11T00:34:21.234Z,4.20
2018-12-11T00:35:21.242Z,4.80
2018-12-11T00:36:21.218Z,4.60
2018-12-11T00:37:21.200Z,4.50
2018-12-11T00:38:21.196Z,4.60
2018-12-11T00:39:21.180Z,4.60
2018-12-11T00:40:21.188Z,4.70
2018-12-11T00:41:21.157Z,5.10
2018-12-11T00:42:21.220Z,4.80
2018-12-11T00:43:21.137Z,4.50
2018-12-11T00:44:21.133Z,4.90
2018-12-11T00:45:21.136Z,4.90
2018-12-11T00:46:21.101Z,4.40
2018-12-11T00:47:21.095Z,4.70
2018-12-11T00:48:21.085Z,4.80
2018-12-11T00:49:21.072Z,4.40
2018-12-11T00:50:21.104Z,4.50
2018-12-11T00:51:21.065Z,4.70
2018-12-11T00:52:21.038Z,4.00
2018-12-11T00:53:21.028Z,5.00
2018-12-11T00:54:21.020Z,4.40
2018-12-11T00:55:21.017Z,4.40
2018-12-11T00:56:21.015Z,4.30
2018-12-11T00:57:20.987Z,4.60
2018-12-11T00:58:21.009Z,4.10
2018-12-11T00:59:20.974Z,4.20
2018-12-11T01:00:20.956Z,4.90
2018-12-11T01:01:20.968Z,4.90
2018-12-11T01:02:20.944Z,4.90
2018-12-11T01:03:20.941Z,4.30
2018-12-11T01:04:20.914Z,4.80
2018-12-11T01:05:20.902Z,4.80
2018-12-11T01:06:20.917Z,4.90
2018-12-11T01:07:20.882Z,4.80
2018-12-11T01:08:20.873Z,5.00
2018-12-11T01:09:20.859Z,4.70
2018-12-11T01:10:20.845Z,4.50
2018-12-11T01:11:20.862Z,4.80
2018-12-11T01:12:20.823Z,5.30
2018-12-11T01:13:20.816Z,4.80
2018-12-11T01:14:20.832Z,4.50
2018-12-11T01:15:20.795Z,5.40
2018-12-11T01:16:20.782Z,5.40
2018-12-11T01:17:20.799Z,4.80
2018-12-11T01:18:20.761Z,6.00
2018-12-11T01:19:20.749Z,4.60
2018-12-11T01:20:20.740Z,4.90
2018-12-11T01:21:20.731Z,5.00
2018-12-11T01:22:20.734Z,4.50
2018-12-11T01:23:20.714Z,4.40
2018-12-11T01:24:20.693Z,4.70
2018-12-11T01:25:20.679Z,4.70
2018-12-11T01:26:20.669Z,4.50
2018-12-11T01:27:20.679Z,4.80
2018-12-11T01:28:20.650Z,5.00
2018-12-11T01:29:20.646Z,5.10
2018-12-11T01:30:20.627Z,4.50
2018-12-11T01:31:20.614Z,4.80
2018-12-11T01:32:20.666Z,4.80
2018-12-11T01:33:20.609Z,4.50
2018-12-11T01:34:20.585Z,4.40
2018-12-11T01:35:20.581Z,5.00
2018-12-11T01:36:20.559Z,5.10
2018-12-11T01:37:20.575Z,4.50
2018-12-11T01:38:20.539Z,5.10
2018-12-11T01:39:28.098Z,4.60
2018-12-11T01:40:20.517Z,4.70
2018-12-11T01:41:20.516Z,4.50
2018-12-11T01:42:20.519Z,4.10
2018-12-11T01:43:20.505Z,4.40
2018-12-11T01:44:20.494Z,4.70
2018-12-11T01:45:20.462Z,4.50
2018-12-11T01:46:20.457Z,4.60
2018-12-11T01:47:20.466Z,5.40
2018-12-11T01:48:20.433Z,4.20
2018-12-11T01:49:20.417Z,4.70
2018-12-11T01:50:20.454Z,4.50
2018-12-11T01:51:20.401Z,4.40
2018-12-11T01:52:20.432Z,4.60
2018-12-11T01:53:20.380Z,4.30
2018-12-11T01:54:20.363Z,4.40
2018-12-11T01:55:20.353Z,4.00
2018-12-11T01:56:20.358Z,4.60
2018-12-11T01:57:20.334Z,4.10
2018-12-11T01:58:20.366Z,4.30
2018-12-11T01:59:20.311Z,4.30
2018-12-11T02:00:20.302Z,4.10
2018-12-11T02:01:20.284Z,4.70
2018-12-11T02:02:20.288Z,4.50
2018-12-11T02:03:20.288Z,4.50
2018-12-11T02:04:20.257Z,4.40
2018-12-11T02:05:20.247Z,4.90
2018-12-11T02:06:20.257Z,4.50
2018-12-11T02:07:20.227Z,5.00
2018-12-11T02:08:20.229Z,4.30
2018-12-11T02:09:20.209Z,5.00
2018-12-11T02:10:20.203Z,5.10
2018-12-11T02:11:20.214Z,4.70
2018-12-11T02:12:20.180Z,4.20
2018-12-11T02:13:20.177Z,4.50
2018-12-11T02:14:20.157Z,4.60
2018-12-11T02:15:20.166Z,4.80
2018-12-11T02:16:20.174Z,4.30
2018-12-11T02:17:20.182Z,4.40
2018-12-11T02:18:20.130Z,4.30
2018-12-11T02:19:20.099Z,4.80
2018-12-11T02:20:20.080Z,5.20
2018-12-11T02:21:20.073Z,5.20
2018-12-11T02:22:20.084Z,5.20
2018-12-11T02:23:20.114Z,5.10
2018-12-11T02:24:20.039Z,4.50
2018-12-11T02:25:20.045Z,5.10
2018-12-11T02:26:20.039Z,4.90
2018-12-11T02:27:20.016Z,4.70
2018-12-11T02:28:20.019Z,5.00
2018-12-11T02:29:19.983Z,5.50
2018-12-11T02:30:19.979Z,4.90
2018-12-11T02:31:19.977Z,5.00
2018-12-11T02:32:19.961Z,5.00
2018-12-11T02:33:20.000Z,5.20
2018-12-11T02:34:19.937Z,5.20
2018-12-11T02:35:19.918Z,4.80
2018-12-11T02:36:19.913Z,4.30
2018-12-11T02:37:19.898Z,4.70
2018-12-11T02:38:19.972Z,5.50
2018-12-11T02:39:19.879Z,4.80
2018-12-11T02:40:19.861Z,5.20
2018-12-11T02:41:19.851Z,5.40
2018-12-11T02:42:19.859Z,5.00
2018-12-11T02:43:19.863Z,5.40
2018-12-11T02:44:19.832Z,6.00
2018-12-11T02:45:19.814Z,5.30
2018-12-11T02:46:19.810Z,5.40
2018-12-11T02:47:19.799Z,5.50
2018-12-11T02:48:19.806Z,6.10
2018-12-11T02:49:19.776Z,5.20
2018-12-11T02:50:19.752Z,6.20
2018-12-11T02:51:19.742Z,5.20
2018-12-11T02:52:19.735Z,5.10
2018-12-11T02:53:19.764Z,5.30
2018-12-11T02:54:19.719Z,5.40
2018-12-11T02:55:27.237Z,5.50
2018-12-11T02:56:19.687Z,5.40
2018-12-11T02:57:19.672Z,5.40
2018-12-11T02:58:19.661Z,5.50
2018-12-11T02:59:19.678Z,5.00
2018-12-11T03:00:19.710Z,5.20
2018-12-11T03:01:27.176Z,5.40
2018-12-11T03:02:19.679Z,4.90
2018-12-11T03:03:19.606Z,5.40
2018-12-11T03:04:19.611Z,5.30
2018-12-11T03:05:19.585Z,5.60
2018-12-11T03:06:19.579Z,5.30
2018-12-11T03:07:19.600Z,5.60
2018-12-11T03:08:19.558Z,5.50
2018-12-11T03:09:19.565Z,5.70
2018-12-11T03:10:19.535Z,5.30
2018-12-11T03:11:19.519Z,5.00
2018-12-11T03:12:19.517Z,5.00
2018-12-11T03:13:19.510Z,5.30
2018-12-11T03:14:19.501Z,5.20
2018-12-11T03:15:19.503Z,5.10
2018-12-11T03:16:19.461Z,4.80
2018-12-11T03:17:19.492Z,5.10
2018-12-11T03:18:19.455Z,5.40
2018-12-11T03:19:19.439Z,4.70
2018-12-11T03:20:19.454Z,4.70
2018-12-11T03:21:19.482Z,4.80
2018-12-11T03:22:19.395Z,4.70
2018-12-11T03:23:19.417Z,4.50
2018-12-11T03:24:19.399Z,4.50
2018-12-11T03:25:19.400Z,4.30
2018-12-11T03:26:19.351Z,4.30
2018-12-11T03:27:19.365Z,4.30
2018-12-11T03:28:26.869Z,4.20
2018-12-11T03:29:19.318Z,4.30
2018-12-11T03:30:19.333Z,4.00
2018-12-11T03:31:19.299Z,3.90
2018-12-11T03:32:19.288Z,4.30
2018-12-11T03:33:19.282Z,3.70
2018-12-11T03:34:19.266Z,3.30
2018-12-11T03:35:19.284Z,3.40
2018-12-11T03:36:19.252Z,3.80
2018-12-11T03:37:19.254Z,3.90
2018-12-11T03:38:19.224Z,4.00
2018-12-11T03:39:19.222Z,3.70
2018-12-11T03:40:19.238Z,3.40
2018-12-11T03:41:19.212Z,3.80
2018-12-11T03:42:19.202Z,3.40
2018-12-11T03:43:19.197Z,2.90
2018-12-11T03:44:19.160Z,3.20
2018-12-11T03:45:19.185Z,3.50
2018-12-11T03:46:19.146Z,3.40
2018-12-11T03:47:19.141Z,3.80
2018-12-11T03:48:19.153Z,3.60
2018-12-11T03:49:19.110Z,4.40
2018-12-11T03:50:19.098Z,3.60
2018-12-11T03:51:19.145Z,3.80
2018-12-11T03:52:21.528Z,3.10
2018-12-11T03:53:19.067Z,3.90
2018-12-11T03:54:19.087Z,4.40
2018-12-11T03:55:19.047Z,4.20
2018-12-11T03:56:19.035Z,4.20
2018-12-11T03:57:19.047Z,4.60
2018-12-11T03:58:19.033Z,4.50
2018-12-11T03:59:18.999Z,4.60
2018-12-11T04:00:18.988Z,4.80
2018-12-11T04:01:19.017Z,4.50
2018-12-11T04:02:19.012Z,4.30
2018-12-11T04:03:18.952Z,4.80
2018-12-11T04:04:18.953Z,4.70
2018-12-11T04:05:18.977Z,4.40
2018-12-11T04:06:18.925Z,4.40
2018-12-11T04:07:18.927Z,4.70
2018-12-11T04:08:18.906Z,4.80
2018-12-11T04:09:18.893Z,4.70
2018-12-11T04:10:18.890Z,4.90
2018-12-11T04:11:18.891Z,4.80
2018-12-11T04:12:18.857Z,4.60
2018-12-11T04:13:18.862Z,4.70
2018-12-11T04:14:18.844Z,4.50
2018-12-11T04:15:18.822Z,5.00
2018-12-11T04:16:18.827Z,4.90
2018-12-11T04:17:18.869Z,4.50
2018-12-11T04:18:18.789Z,4.40
2018-12-11T04:19:18.795Z,4.70
2018-12-11T04:20:18.774Z,4.70
2018-12-11T04:21:18.764Z,5.00
2018-12-11T04:22:18.758Z,5.00
2018-12-11T04:23:18.789Z,4.70
2018-12-11T04:24:18.755Z,4.70
2018-12-11T04:25:18.739Z,4.30
2018-12-11T04:26:18.704Z,4.50
2018-12-11T04:27:18.694Z,4.60
2018-12-11T04:28:18.742Z,4.50
2018-12-11T04:29:18.673Z,4.40
2018-12-11T04:30:18.661Z,4.70
2018-12-11T04:31:18.661Z,4.70
2018-12-11T04:32:18.658Z,4.50
2018-12-11T04:33:18.634Z,4.50
2018-12-11T04:34:18.649Z,4.60
2018-12-11T04:35:18.640Z,4.70
2018-12-11T04:36:18.612Z,4.70
2018-12-11T04:37:18.583Z,5.00
2018-12-11T04:38:18.601Z,4.60
2018-12-11T04:39:18.584Z,4.70
2018-12-11T04:40:18.575Z,4.80
2018-12-11T04:41:18.556Z,4.50
2018-12-11T04:42:18.533Z,4.90
2018-12-11T04:43:18.535Z,5.10
2018-12-11T04:44:18.583Z,4.70
2018-12-11T04:45:18.522Z,5.00
2018-12-11T04:46:18.482Z,4.50
2018-12-11T04:47:18.475Z,4.60
2018-12-11T04:48:18.497Z,4.70
2018-12-11T04:49:18.457Z,5.00
2018-12-11T04:50:18.460Z,5.80
2018-12-11T04:51:18.426Z,5.20
2018-12-11T04:52:18.418Z,5.00
2018-12-11T04:53:18.428Z,5.10
2018-12-11T04:54:18.399Z,5.60
2018-12-11T04:55:18.384Z,5.10
2018-12-11T04:56:18.405Z,5.50
2018-12-11T04:57:18.369Z,5.10
2018-12-11T04:58:18.352Z,5.40
2018-12-11T04:59:18.373Z,5.00
2018-12-11T05:00:18.331Z,5.00
2018-12-11T05:01:18.335Z,5.20
2018-12-11T05:02:18.342Z,5.00
2018-12-11T05:03:18.293Z,5.50
2018-12-11T05:04:18.314Z,5.30
2018-12-11T05:05:18.299Z,5.30
2018-12-11T05:06:18.273Z,5.10
2018-12-11T05:07:18.262Z,5.40
2018-12-11T05:08:18.242Z,5.30
2018-12-11T05:09:18.266Z,5.40
2018-12-11T05:10:18.228Z,5.50
2018-12-11T05:11:18.206Z,5.60
2018-12-11T05:12:18.252Z,5.70
2018-12-11T05:13:18.225Z,5.30
2018-12-11T05:14:18.178Z,5.60
2018-12-11T05:15:18.199Z,4.90
2018-12-11T05:16:18.159Z,5.20
2018-12-11T05:17:18.153Z,5.60
2018-12-11T05:18:18.150Z,5.50
2018-12-11T05:19:18.121Z,5.60
2018-12-11T05:20:18.188Z,6.30
2018-12-11T05:21:18.098Z,5.80
2018-12-11T05:22:18.092Z,5.40
2018-12-11T05:23:18.083Z,6.10
2018-12-11T05:24:18.109Z,5.50
2018-12-11T05:25:18.052Z,5.10
2018-12-11T05:26:18.058Z,5.10
2018-12-11T05:27:18.047Z,5.90
2018-12-11T05:28:18.023Z,6.10
2018-12-11T05:29:18.023Z,5.00
2018-12-11T05:30:17.997Z,5.70
2018-12-11T05:31:18.005Z,5.20
2018-12-11T05:32:18.008Z,5.20
2018-12-11T05:33:17.968Z,5.40
2018-12-11T05:34:17.982Z,4.90
2018-12-11T05:35:17.970Z,5.10
2018-12-11T05:36:17.954Z,5.60
2018-12-11T05:37:17.925Z,5.20
2018-12-11T05:38:17.912Z,5.30
2018-12-11T05:39:17.909Z,5.40
2018-12-11T05:40:17.904Z,4.80
2018-12-11T05:41:17.889Z,4.50
2018-12-11T05:42:17.889Z,4.80
2018-12-11T05:43:17.860Z,4.40
2018-12-11T05:44:17.843Z,4.40
2018-12-11T05:45:17.838Z,4.50
2018-12-11T05:46:17.843Z,4.20
2018-12-11T05:47:17.850Z,4.40
2018-12-11T05:48:17.811Z,4.00
2018-12-11T05:49:17.791Z,3.60
2018-12-11T05:50:17.780Z,4.90
2018-12-11T05:51:17.779Z,4.00
2018-12-11T05:52:17.798Z,4.60
2018-12-11T05:53:17.746Z,4.20
2018-12-11T05:54:17.738Z,3.60
2018-12-11T05:55:17.732Z,4.10
2018-12-11T05:56:17.710Z,4.90
2018-12-11T05:57:17.703Z,4.70
2018-12-11T05:58:17.749Z,4.80
2018-12-11T05:59:17.678Z,4.50
2018-12-11T06:00:17.667Z,4.50
2018-12-11T06:01:17.729Z,4.30
2018-12-11T06:02:17.656Z,4.20
2018-12-11T06:03:17.673Z,4.30
2018-12-11T06:04:17.638Z,4.50
2018-12-11T06:05:17.650Z,4.50
2018-12-11T06:06:17.606Z,4.40
2018-12-11T06:07:17.590Z,4.40
2018-12-11T06:08:17.621Z,4.70
2018-12-11T06:09:17.574Z,4.90
2018-12-11T06:10:17.577Z,4.60
2018-12-11T06:11:17.594Z,5.10
2018-12-11T06:12:17.622Z,4.50
2018-12-11T06:13:17.600Z,4.80
2018-12-11T06:14:17.553Z,5.30
2018-12-11T06:15:17.506Z,5.20
2018-12-11T06:16:17.535Z,4.90
2018-12-11T06:17:17.547Z,5.00
2018-12-11T06:18:17.511Z,4.90
2018-12-11T06:19:17.461Z,5.50
2018-12-11T06:20:17.454Z,4.80
2018-12-11T06:21:17.458Z,5.10
2018-12-11T06:22:17.429Z,4.90
2018-12-11T06:23:17.442Z,5.40
2018-12-11T06:24:17.426Z,5.00
2018-12-11T06:25:17.416Z,5.00
2018-12-11T06:26:25.931Z,4.90
2018-12-11T06:27:17.373Z,4.90
2018-12-11T06:28:17.361Z,5.40
2018-12-11T06:29:17.369Z,5.10
2018-12-11T06:30:17.350Z,5.60
2018-12-11T06:31:17.333Z,5.50
2018-12-11T06:32:17.326Z,5.40
2018-12-11T06:33:17.366Z,5.30
2018-12-11T06:34:17.343Z,5.90
2018-12-11T06:35:17.299Z,5.40
2018-12-11T06:36:17.279Z,5.40
2018-12-11T06:37:17.298Z,5.30
2018-12-11T06:38:17.259Z,5.20
2018-12-11T06:39:17.288Z,5.80
2018-12-11T06:40:17.275Z,6.30
2018-12-11T06:41:17.223Z,5.30
2018-12-11T06:42:17.209Z,5.60
2018-12-11T06:43:17.203Z,5.00
2018-12-11T06:44:17.249Z,5.00
2018-12-11T06:45:17.201Z,5.00
2018-12-11T06:46:17.167Z,5.20
2018-12-11T06:47:17.192Z,5.20
2018-12-11T06:48:17.145Z,5.30
2018-12-11T06:49:17.144Z,5.20
2018-12-11T06:50:17.161Z,5.10
2018-12-11T06:51:17.112Z,4.60
2018-12-11T06:52:17.114Z,5.10
2018-12-11T06:53:17.094Z,4.50
2018-12-11T06:54:17.080Z,4.60
2018-12-11T06:55:17.081Z,4.60
2018-12-11T06:56:17.080Z,4.60
2018-12-11T06:57:17.049Z,4.40
2018-12-11T06:58:17.040Z,4.00
2018-12-11T06:59:17.028Z,4.20
2018-12-11T07:00:17.017Z,4.50
2018-12-11T07:01:17.076Z,4.10
2018-12-11T07:02:16.998Z,4.20
2018-12-11T07:03:16.994Z,8.60
2018-12-11T07:04:16.973Z,5.70
2018-12-11T07:05:16.969Z,5.80
2018-12-11T07:06:16.991Z,4.50
2018-12-11T07:07:17.021Z,4.20
2018-12-11T07:08:16.961Z,3.90
2018-12-11T07:09:16.929Z,3.80
2018-12-11T07:10:16.914Z,3.80
2018-12-11T07:11:16.960Z,3.30
2018-12-11T07:12:16.895Z,4.20
2018-12-11T07:13:16.917Z,3.60
2018-12-11T07:14:16.934Z,3.40
2018-12-11T07:15:16.852Z,3.60
2018-12-11T07:16:16.863Z,3.70
2018-12-11T07:17:16.832Z,3.50
2018-12-11T07:18:16.839Z,3.70
2018-12-11T07:19:16.809Z,3.80
2018-12-11T07:20:16.819Z,4.00
2018-12-11T07:21:16.807Z,3.60
2018-12-11T07:22:16.776Z,3.60
2018-12-11T07:23:16.767Z,3.40
2018-12-11T07:24:16.784Z,3.70
2018-12-11T07:25:16.743Z,3.60
2018-12-11T07:26:16.753Z,3.40
2018-12-11T07:27:16.729Z,4.10
2018-12-11T07:28:16.712Z,3.60
2018-12-11T07:29:16.746Z,3.50
2018-12-11T07:30:16.816Z,4.10
2018-12-11T07:31:16.735Z,3.40
2018-12-11T07:32:16.686Z,3.90
2018-12-11T07:33:16.694Z,4.30
2018-12-11T07:34:16.653Z,4.30
2018-12-11T07:35:16.643Z,4.30
2018-12-11T07:36:16.630Z,4.10
2018-12-11T07:37:16.687Z,3.60
2018-12-11T07:38:16.605Z,4.60
2018-12-11T07:40:34.721Z,5.10
2018-12-11T07:41:34.889Z,4.40
2018-12-11T07:42:34.844Z,4.00
2018-12-11T07:43:34.666Z,4.40
2018-12-11T07:44:34.628Z,4.10
2018-12-11T07:45:34.604Z,3.60
2018-12-11T07:46:34.700Z,4.30
2018-12-11T07:47:34.655Z,4.10
2018-12-11T07:48:34.593Z,4.10
2018-12-11T07:49:34.619Z,3.40
2018-12-11T07:50:34.863Z,4.00
2018-12-11T07:51:34.849Z,5.10
2018-12-11T07:52:34.741Z,4.10
2018-12-11T07:53:34.772Z,4.20
2018-12-11T07:54:34.666Z,4.20
2018-12-11T07:55:34.562Z,4.30
2018-12-11T07:56:34.645Z,3.40
2018-12-11T07:57:34.739Z,3.70
2018-12-11T07:58:34.629Z,3.90
2018-12-11T07:59:34.730Z,4.00
2018-12-11T08:00:34.672Z,4.20
2018-12-11T08:01:34.981Z,4.10
2018-12-11T08:02:34.528Z,4.20
2018-12-11T08:03:34.578Z,4.10
2018-12-11T08:04:34.557Z,4.40
2018-12-11T08:05:34.674Z,4.60
2018-12-11T08:06:34.591Z,4.90
2018-12-11T08:07:34.507Z,5.60
2018-12-11T08:08:34.739Z,5.10
2018-12-11T08:09:34.482Z,5.50
2018-12-11T08:10:34.474Z,5.40
2018-12-11T08:11:34.686Z,5.50
2018-12-11T08:12:34.553Z,5.60
2018-12-11T08:13:34.440Z,5.60
2018-12-11T08:14:34.604Z,5.80
2018-12-11T08:19:44.398Z,6.60
2018-12-11T08:20:44.286Z,6.90
2018-12-11T08:21:45.370Z,6.20
2018-12-11T08:22:44.229Z,6.00
2018-12-11T08:23:46.409Z,6.20
2018-12-11T08:24:44.194Z,6.10
2018-12-11T08:25:44.791Z,6.30
2018-12-11T08:26:44.619Z,6.50
2018-12-11T08:27:44.249Z,6.30
2018-12-11T08:29:54.369Z,5.50
2018-12-11T08:30:54.342Z,6.60
2018-12-11T08:31:54.341Z,5.80
2018-12-11T08:32:54.335Z,5.60
2018-12-11T08:33:54.314Z,5.70
2018-12-11T08:34:54.332Z,5.60
2018-12-11T08:35:54.293Z,5.30
2018-12-11T08:36:54.280Z,5.90
2018-12-11T08:37:54.268Z,5.70
2018-12-11T08:38:54.260Z,5.20
2018-12-11T08:39:54.266Z,5.20
2018-12-11T08:40:54.281Z,4.80
2018-12-11T08:41:54.229Z,5.50
2018-12-11T08:42:54.217Z,4.90
2018-12-11T08:43:54.217Z,4.40
2018-12-11T08:44:54.369Z,5.10
2018-12-11T08:45:54.196Z,5.10
2018-12-11T08:46:54.176Z,4.60
2018-12-11T08:47:54.165Z,5.00
2018-12-11T08:48:54.161Z,4.90
2018-12-11T08:49:54.145Z,4.90
2018-12-11T08:50:54.153Z,5.00
2018-12-11T08:51:54.293Z,5.40
2018-12-11T08:52:54.110Z,5.00
2018-12-11T08:53:54.101Z,4.60
2018-12-11T08:54:54.087Z,4.80
2018-12-11T08:55:54.095Z,4.70
2018-12-11T08:56:54.082Z,4.50
2018-12-11T08:57:54.062Z,4.70
2018-12-11T08:58:55.372Z,5.00
2018-12-11T08:59:54.047Z,5.50
2018-12-11T09:00:54.051Z,4.60
2018-12-11T09:01:54.012Z,4.90
2018-12-11T09:02:53.997Z,5.50
2018-12-11T09:03:54.042Z,5.10
2018-12-11T09:04:53.982Z,4.70
2018-12-11T09:05:53.994Z,4.40
2018-12-11T09:06:53.966Z,4.80
2018-12-11T09:07:53.941Z,5.10
2018-12-11T09:08:53.938Z,4.70
2018-12-11T09:09:53.921Z,4.80
2018-12-11T09:10:53.953Z,4.20
2018-12-11T09:11:53.926Z,4.30
2018-12-11T09:12:53.894Z,4.10
2018-12-11T09:13:53.938Z,4.80
2018-12-11T09:14:53.872Z,4.40
2018-12-11T09:15:53.884Z,4.40
2018-12-11T09:16:53.847Z,4.50
2018-12-11T09:17:53.833Z,4.20
2018-12-11T09:18:53.827Z,4.60
2018-12-11T09:19:53.818Z,4.40
2018-12-11T09:20:53.808Z,4.10
2018-12-11T09:21:53.808Z,4.10
2018-12-11T09:23:01.325Z,3.90
2018-12-11T09:23:54.431Z,4.40
2018-12-11T09:24:53.755Z,4.20
2018-12-11T09:25:53.755Z,4.00
2018-12-11T09:26:53.782Z,4.10
2018-12-11T09:27:53.727Z,3.80
2018-12-11T09:28:53.710Z,4.10
2018-12-11T09:29:53.719Z,4.30
2018-12-11T09:30:53.693Z,4.30
2018-12-11T09:31:53.698Z,4.30
2018-12-11T09:33:02.262Z,4.60
2018-12-11T09:33:53.660Z,4.80
2018-12-11T09:34:53.645Z,4.70
2018-12-11T09:35:53.637Z,4.20
2018-12-11T09:36:53.641Z,4.10
2018-12-11T09:37:53.616Z,4.70
2018-12-11T09:38:53.617Z,4.90
2018-12-11T09:39:53.592Z,4.30
2018-12-11T09:40:53.579Z,4.30
2018-12-11T09:41:53.589Z,4.10
2018-12-11T09:42:53.735Z,3.80
2018-12-11T09:43:53.554Z,3.90
2018-12-11T09:44:53.535Z,3.70
2018-12-11T09:45:53.529Z,4.10
2018-12-11T09:46:53.529Z,3.50
2018-12-11T09:47:53.509Z,3.90
2018-12-11T09:49:02.048Z,4.20
2018-12-11T09:49:53.478Z,4.30
2018-12-11T09:50:53.467Z,4.10
2018-12-11T09:51:53.492Z,5.20
2018-12-11T09:52:53.447Z,3.70
2018-12-11T09:53:53.433Z,4.00
2018-12-11T09:54:53.471Z,4.00
2018-12-11T09:55:53.413Z,4.50
2018-12-11T09:56:53.401Z,5.00
2018-12-11T09:57:53.426Z,4.50
2018-12-11T09:58:53.405Z,4.60
2018-12-11T09:59:53.368Z,4.70
2018-12-11T10:00:53.373Z,4.50
2018-12-11T10:01:53.348Z,6.30
2018-12-11T10:02:53.372Z,5.20
2018-12-11T10:03:53.335Z,4.90
2018-12-11T10:04:53.366Z,4.60
2018-12-11T10:05:53.303Z,4.90
2018-12-11T10:06:53.290Z,5.00
2018-12-11T10:07:53.298Z,5.50
2018-12-11T10:08:53.276Z,4.50
2018-12-11T10:09:53.269Z,4.90
2018-12-11T10:10:53.252Z,4.90
2018-12-11T10:11:53.245Z,4.70
2018-12-11T10:12:53.246Z,5.20
2018-12-11T10:13:53.221Z,4.70
2018-12-11T10:14:53.215Z,4.60
2018-12-11T10:15:53.203Z,4.90
2018-12-11T10:16:53.197Z,5.70
2018-12-11T10:17:53.202Z,4.70
2018-12-11T10:18:53.164Z,4.80
2018-12-11T10:19:53.158Z,4.50
2018-12-11T10:20:53.138Z,4.60
2018-12-11T10:21:53.128Z,4.50
2018-12-11T10:22:53.156Z,4.40
2018-12-11T10:23:53.158Z,4.40
2018-12-11T10:24:53.094Z,4.40
2018-12-11T10:25:53.099Z,4.70
2018-12-11T10:26:53.074Z,5.10
2018-12-11T10:27:53.066Z,5.00
2018-12-11T10:28:53.073Z,4.60
2018-12-11T10:29:53.045Z,4.70
2018-12-11T10:30:53.029Z,5.10
2018-12-11T10:31:53.021Z,5.50
2018-12-11T10:32:53.007Z,5.00
2018-12-11T10:33:53.013Z,4.70
2018-12-11T10:34:52.992Z,5.00
2018-12-11T10:35:53.006Z,4.40
2018-12-11T10:36:52.966Z,4.70
2018-12-11T10:37:52.999Z,4.60
2018-12-11T10:38:52.964Z,5.30
2018-12-11T10:39:52.932Z,4.40
2018-12-11T10:40:52.930Z,4.50
2018-12-11T10:41:52.921Z,4.80
2018-12-11T10:42:52.901Z,5.70
2018-12-11T10:43:52.922Z,4.90
2018-12-11T10:44:53.015Z,5.00
2018-12-11T10:45:52.867Z,5.10
2018-12-11T10:46:52.860Z,4.90
2018-12-11T10:47:52.862Z,4.90
2018-12-11T10:48:52.864Z,4.80
2018-12-11T10:49:52.827Z,5.20
2018-12-11T10:50:52.832Z,5.20
2018-12-11T10:51:52.818Z,5.10
2018-12-11T10:52:52.803Z,4.50
2018-12-11T10:53:52.807Z,5.50
2018-12-11T10:54:52.788Z,5.60
2018-12-11T10:55:52.761Z,5.90
2018-12-11T10:56:52.796Z,4.80
2018-12-11T10:57:52.769Z,5.10
2018-12-11T10:58:52.751Z,5.20
2018-12-11T10:59:52.735Z,4.60
2018-12-11T11:00:52.706Z,4.50
2018-12-11T11:01:52.706Z,4.90
2018-12-11T11:02:52.705Z,3.80
2018-12-11T11:03:52.676Z,4.10
2018-12-11T11:04:52.684Z,4.00
2018-12-11T11:05:52.682Z,4.00
2018-12-11T11:06:52.649Z,4.00
2018-12-11T11:07:52.634Z,4.50
2018-12-11T11:08:52.621Z,5.50
2018-12-11T11:09:52.626Z,4.90
2018-12-11T11:10:52.607Z,4.60
2018-12-11T11:11:52.635Z,4.30
2018-12-11T11:12:52.586Z,4.20
2018-12-11T11:13:52.595Z,4.50
2018-12-11T11:14:52.572Z,4.10
2018-12-11T11:15:52.568Z,3.70
2018-12-11T11:16:52.538Z,3.70
2018-12-11T11:17:52.524Z,3.70
2018-12-11T11:18:52.524Z,3.40
2018-12-11T11:19:52.500Z,3.70
2018-12-11T11:20:52.519Z,5.70
2018-12-11T11:21:52.496Z,4.50
2018-12-11T11:22:52.470Z,3.40
2018-12-11T11:23:52.481Z,4.90
2018-12-11T11:24:52.449Z,4.40
2018-12-11T11:25:52.474Z,4.30
2018-12-11T11:26:52.428Z,4.20
2018-12-11T11:27:52.421Z,3.80
2018-12-11T11:28:52.419Z,3.70
2018-12-11T11:29:52.405Z,3.90
2018-12-11T11:30:52.449Z,3.70
2018-12-11T11:31:52.378Z,3.10
2018-12-11T11:32:52.383Z,3.50
2018-12-11T11:33:56.670Z,3.10
2018-12-11T11:34:53.364Z,3.20
2018-12-11T11:35:52.332Z,3.10
2018-12-11T11:36:52.383Z,3.10
2018-12-11T11:37:52.311Z,4.10
2018-12-11T11:38:52.323Z,3.60
2018-12-11T11:39:52.287Z,2.90
2018-12-11T11:40:52.300Z,3.20
2018-12-11T11:41:52.290Z,3.80
2018-12-11T11:42:52.255Z,3.30
2018-12-11T11:43:52.270Z,3.50
2018-12-11T11:44:52.269Z,3.20
2018-12-11T11:45:52.225Z,3.10
2018-12-11T11:46:52.231Z,3.40
2018-12-11T11:47:52.208Z,3.00
2018-12-11T11:48:52.195Z,3.00
2018-12-11T11:49:52.182Z,3.10
2018-12-11T11:50:52.194Z,3.20
2018-12-11T11:51:52.185Z,2.70
2018-12-11T11:52:52.146Z,3.10
2018-12-11T11:53:52.140Z,2.90
2018-12-11T11:54:52.132Z,3.00
2018-12-11T11:55:52.117Z,3.30
2018-12-11T11:56:52.140Z,3.50
2018-12-11T11:57:52.091Z,2.70
2018-12-11T11:58:52.083Z,3.40
2018-12-11T11:59:52.078Z,3.00
2018-12-11T12:00:52.073Z,2.70
2018-12-11T12:01:52.095Z,2.50
2018-12-11T12:02:52.039Z,2.50
2018-12-11T12:03:52.035Z,2.30
2018-12-11T12:04:52.016Z,3.10
2018-12-11T12:05:52.034Z,2.60
2018-12-11T12:06:51.993Z,3.00
2018-12-11T12:07:52.006Z,3.10
2018-12-11T12:08:51.978Z,3.00
2018-12-11T12:09:51.993Z,2.90
2018-12-11T12:10:51.954Z,2.40
2018-12-11T12:11:51.944Z,3.10
2018-12-11T12:12:51.947Z,3.00
2018-12-11T12:13:51.916Z,3.40
2018-12-11T12:14:51.917Z,3.00
2018-12-11T12:15:51.897Z,3.30
2018-12-11T12:16:51.888Z,3.10
2018-12-11T12:17:51.896Z,2.60
2018-12-11T12:18:51.869Z,2.40
2018-12-11T12:19:51.856Z,2.90
2018-12-11T12:20:51.859Z,2.90
2018-12-11T12:21:51.840Z,2.50
2018-12-11T12:22:51.846Z,2.80
2018-12-11T12:24:00.499Z,1.90
2018-12-11T12:24:59.436Z,2.20
2018-12-11T12:25:51.791Z,3.50
2018-12-11T12:26:51.775Z,2.90
2018-12-11T12:27:51.789Z,2.60
2018-12-11T12:28:51.759Z,2.80
2018-12-11T12:29:51.804Z,2.70
2018-12-11T12:30:51.734Z,3.00
2018-12-11T12:31:51.810Z,3.40
2018-12-11T12:32:51.709Z,3.20
2018-12-11T12:33:52.174Z,3.30
2018-12-11T12:34:51.692Z,2.90
2018-12-11T12:35:51.684Z,3.60
2018-12-11T12:36:51.667Z,3.60
2018-12-11T12:37:51.662Z,3.40
2018-12-11T12:38:51.684Z,3.30
2018-12-11T12:39:51.648Z,3.20
2018-12-11T12:40:51.630Z,3.60
2018-12-11T12:41:51.617Z,3.70
2018-12-11T12:42:51.607Z,3.10
2018-12-11T12:43:51.618Z,3.10
2018-12-11T12:44:51.587Z,2.90
2018-12-11T12:45:51.570Z,3.40
2018-12-11T12:46:51.563Z,3.40
2018-12-11T12:47:51.549Z,2.60
2018-12-11T12:48:51.558Z,2.70
2018-12-11T12:49:51.536Z,3.00
2018-12-11T12:50:51.516Z,4.20
2018-12-11T12:51:51.514Z,3.60
2018-12-11T12:52:51.498Z,4.10
2018-12-11T12:53:51.513Z,3.50
2018-12-11T12:54:51.477Z,4.30
2018-12-11T12:55:51.466Z,3.30
2018-12-11T12:56:51.455Z,3.30
2018-12-11T12:57:51.442Z,3.00
2018-12-11T12:58:51.460Z,2.50
2018-12-11T12:59:51.418Z,3.20
2018-12-11T13:00:51.411Z,2.80
2018-12-11T13:01:51.396Z,2.60
2018-12-11T13:02:51.408Z,2.60
2018-12-11T13:03:51.418Z,3.10
2018-12-11T13:04:51.361Z,2.90
2018-12-11T13:05:51.357Z,3.00
2018-12-11T13:06:51.346Z,3.60
2018-12-11T13:07:51.338Z,3.50
2018-12-11T13:08:51.336Z,3.20
2018-12-11T13:09:51.316Z,3.20
2018-12-11T13:10:51.304Z,3.30
2018-12-11T13:11:51.286Z,3.40
2018-12-11T13:12:51.273Z,3.70
2018-12-11T13:13:51.282Z,3.60
2018-12-11T13:14:51.257Z,3.80
2018-12-11T13:15:51.257Z,3.10
2018-12-11T13:16:51.236Z,3.00
2018-12-11T13:17:51.218Z,3.60
2018-12-11T13:18:51.228Z,3.40
2018-12-11T13:19:51.206Z,2.90
2018-12-11T13:20:51.190Z,3.10
2018-12-11T13:21:51.221Z,2.80
2018-12-11T13:22:51.166Z,2.70
2018-12-11T13:23:51.210Z,1.80
2018-12-11T13:24:51.146Z,1.50